Arcadia Lakes, South Carolina
Current Conditions -  °F | °C
As of 5:27 AM on Sunday 23 Nov 2014 (Local Time) from KCUB Reporting Station
Moderate Rain Moderate Rain  
Wind Chill: 49°   Ceiling: 8500
Heat Index: 49°   Visibility: 4mi
Dew Point: 47°   Wind: 0mph
Humidity: 93%   Direction: NA
Pressure: 30.21"   Gusts: NA
Location:  34.025°N, 80.9562°W
Report Text: KCUB 231027Z AUTO 00000KT 4SM RA BR FEW006 SCT070 OVC085 09/08 A3021 RMK AO2 P0004 T00940083
Loading
Personal Weather Stations






























Interactive Weather Map New forecast layout! Learn more

10-Day Weather Forecast

Advertisements
Track Severe Weather on mobile